createdAt,value
2023-03-30T00:00:23.753Z,1007.72
2023-03-30T00:01:27.957Z,1007.73
2023-03-30T00:02:32.317Z,1007.75
2023-03-30T00:03:36.558Z,1007.71
2023-03-30T00:04:40.803Z,1007.68
2023-03-30T00:05:45.055Z,1007.66
2023-03-30T00:06:49.267Z,1007.63
2023-03-30T00:07:53.535Z,1007.62
2023-03-30T00:08:57.731Z,1007.59
2023-03-30T00:10:02.071Z,1007.58
2023-03-30T00:11:06.560Z,1007.61
2023-03-30T00:12:10.485Z,1007.58
2023-03-30T00:13:14.717Z,1007.60
2023-03-30T00:14:19.019Z,1007.63
2023-03-30T00:15:23.306Z,1007.63
2023-03-30T00:16:27.531Z,1007.63
2023-03-30T00:17:31.685Z,1007.62
2023-03-30T00:18:35.932Z,1007.62
2023-03-30T00:19:40.199Z,1007.58
2023-03-30T00:20:44.553Z,1007.56
2023-03-30T00:21:48.685Z,1007.55
2023-03-30T00:22:53.026Z,1007.54
2023-03-30T00:23:57.292Z,1007.53
2023-03-30T00:25:01.642Z,1007.52
2023-03-30T00:26:05.918Z,1007.50
2023-03-30T00:27:10.048Z,1007.49
2023-03-30T00:28:14.350Z,1007.48
2023-03-30T00:29:18.510Z,1007.47
2023-03-30T00:30:22.796Z,1007.47
2023-03-30T00:31:27.065Z,1007.46
2023-03-30T00:32:31.287Z,1007.45
2023-03-30T00:33:45.816Z,1007.44
2023-03-30T00:34:39.832Z,1007.43
2023-03-30T00:35:44.135Z,1007.41
2023-03-30T00:36:48.297Z,1007.40
2023-03-30T00:37:52.556Z,1007.42
2023-03-30T00:38:56.776Z,1007.38
2023-03-30T00:40:01.048Z,1007.37
2023-03-30T00:41:05.530Z,1007.35
2023-03-30T00:42:09.564Z,1007.34
2023-03-30T00:43:13.819Z,1007.28
2023-03-30T00:44:24.087Z,1007.27
2023-03-30T00:45:26.913Z,1007.24
2023-03-30T00:46:31.533Z,1007.21
2023-03-30T00:47:35.354Z,1007.18
2023-03-30T00:48:39.451Z,1007.17
2023-03-30T00:49:43.757Z,1007.17
2023-03-30T00:50:48.020Z,1007.14
2023-03-30T00:51:52.304Z,1007.14
2023-03-30T00:52:56.484Z,1007.11
2023-03-30T00:54:00.731Z,1007.11
2023-03-30T00:55:04.952Z,1007.12
2023-03-30T00:56:09.290Z,1007.10
2023-03-30T00:57:13.549Z,1007.09
2023-03-30T00:58:17.753Z,1007.10
2023-03-30T00:59:22.081Z,1007.09
2023-03-30T01:00:26.356Z,1007.08
2023-03-30T01:01:30.594Z,1007.04
2023-03-30T01:02:34.884Z,1007.04
2023-03-30T01:03:39.210Z,1007.01
2023-03-30T01:04:43.153Z,1007.00
2023-03-30T01:05:47.611Z,1006.97
2023-03-30T01:06:51.778Z,1006.94
2023-03-30T01:07:56.025Z,1006.94
2023-03-30T01:09:14.340Z,1006.91
2023-03-30T01:10:17.506Z,1006.89
2023-03-30T01:11:21.701Z,1006.86
2023-03-30T01:12:25.995Z,1006.83
2023-03-30T01:13:44.242Z,1006.83
2023-03-30T01:14:47.529Z,1006.79
2023-03-30T01:15:51.738Z,1006.81
2023-03-30T01:16:55.873Z,1006.81
2023-03-30T01:18:00.126Z,1006.83
2023-03-30T01:19:04.267Z,1006.83
2023-03-30T01:20:08.423Z,1006.86
2023-03-30T01:21:12.764Z,1006.85
2023-03-30T01:22:17.038Z,1006.82
2023-03-30T01:23:21.389Z,1006.79
2023-03-30T01:24:25.617Z,1006.76
2023-03-30T01:25:29.851Z,1006.76
2023-03-30T01:26:34.040Z,1006.71
2023-03-30T01:27:38.301Z,1006.69
2023-03-30T01:28:42.544Z,1006.71
2023-03-30T01:29:46.744Z,1006.68
2023-03-30T01:31:05.300Z,1006.67
2023-03-30T01:32:08.064Z,1006.68
2023-03-30T01:33:12.279Z,1006.65
2023-03-30T01:34:16.468Z,1006.64
2023-03-30T01:35:20.859Z,1006.65
2023-03-30T01:36:24.987Z,1006.64
2023-03-30T01:37:29.191Z,1006.64
2023-03-30T01:38:33.482Z,1006.63
2023-03-30T01:39:37.685Z,1006.62
2023-03-30T01:40:41.979Z,1006.60
2023-03-30T01:41:46.118Z,1006.61
2023-03-30T01:42:50.350Z,1006.58
2023-03-30T01:43:54.651Z,1006.55
2023-03-30T01:44:58.779Z,1006.53
2023-03-30T01:46:03.075Z,1006.52
2023-03-30T01:47:07.328Z,1006.51
2023-03-30T01:48:25.585Z,1006.53
2023-03-30T01:49:28.438Z,1006.55
2023-03-30T01:50:32.706Z,1006.53
2023-03-30T01:51:37.039Z,1006.50
2023-03-30T01:52:41.379Z,1006.49
2023-03-30T01:53:45.502Z,1006.47
2023-03-30T01:54:49.711Z,1006.44
2023-03-30T01:55:54.013Z,1006.45
2023-03-30T01:56:58.279Z,1006.42
2023-03-30T01:58:02.459Z,1006.43
2023-03-30T01:59:06.687Z,1006.41
2023-03-30T02:00:10.817Z,1006.40
2023-03-30T02:01:15.205Z,1006.39
2023-03-30T02:02:19.417Z,1006.39
2023-03-30T02:03:23.865Z,1006.37
2023-03-30T02:04:27.886Z,1006.33
2023-03-30T02:05:32.267Z,1006.30
2023-03-30T02:06:36.445Z,1006.27
2023-03-30T02:07:40.712Z,1006.23
2023-03-30T02:08:44.937Z,1006.18
2023-03-30T02:09:49.224Z,1006.12
2023-03-30T02:10:53.666Z,1006.10
2023-03-30T02:11:57.792Z,1006.02
2023-03-30T02:13:01.912Z,1005.97
2023-03-30T02:14:06.311Z,1005.95
2023-03-30T02:15:10.529Z,1005.91
2023-03-30T02:16:14.790Z,1005.93
2023-03-30T02:17:19.059Z,1005.90
2023-03-30T02:18:23.266Z,1005.90
2023-03-30T02:19:27.477Z,1005.86
2023-03-30T02:20:31.726Z,1005.85
2023-03-30T02:21:36.018Z,1005.82
2023-03-30T02:22:40.265Z,1005.80
2023-03-30T02:23:44.472Z,1005.79
2023-03-30T02:24:48.702Z,1005.78
2023-03-30T02:25:53.005Z,1005.75
2023-03-30T02:26:57.193Z,1005.72
2023-03-30T02:28:01.428Z,1005.69
2023-03-30T02:29:05.663Z,1005.66
2023-03-30T02:30:09.950Z,1005.62
2023-03-30T02:31:14.175Z,1005.58
2023-03-30T02:32:18.387Z,1005.54
2023-03-30T02:33:22.614Z,1005.52
2023-03-30T02:34:26.879Z,1005.50
2023-03-30T02:35:31.026Z,1005.50
2023-03-30T02:36:35.288Z,1005.46
2023-03-30T02:37:39.599Z,1005.45
2023-03-30T02:38:43.766Z,1005.39
2023-03-30T02:39:48.071Z,1005.36
2023-03-30T02:40:52.265Z,1005.34
2023-03-30T02:41:56.500Z,1005.32
2023-03-30T02:43:00.743Z,1005.28
2023-03-30T02:44:08.081Z,1005.29
2023-03-30T02:45:11.494Z,1005.29
2023-03-30T02:46:15.736Z,1005.30
2023-03-30T02:47:19.981Z,1005.31
2023-03-30T02:48:24.189Z,1005.29
2023-03-30T02:49:28.386Z,1005.27
2023-03-30T02:50:32.669Z,1005.23
2023-03-30T02:51:36.861Z,1005.21
2023-03-30T02:52:41.203Z,1005.22
2023-03-30T02:53:45.441Z,1005.22
2023-03-30T02:55:03.679Z,1005.21
2023-03-30T02:56:06.624Z,1005.17
2023-03-30T02:57:10.962Z,1005.14
2023-03-30T02:58:15.074Z,1005.10
2023-03-30T02:59:19.330Z,1005.07
2023-03-30T03:00:23.593Z,1005.03
2023-03-30T03:01:27.955Z,1005.02
2023-03-30T03:02:32.164Z,1005.04
2023-03-30T03:03:36.606Z,1005.02
2023-03-30T03:04:40.674Z,1005.00
2023-03-30T03:05:44.891Z,1005.05
2023-03-30T03:06:49.241Z,1005.05
2023-03-30T03:07:53.443Z,1005.03
2023-03-30T03:08:57.716Z,1005.02
2023-03-30T03:10:01.939Z,1004.99
2023-03-30T03:11:06.393Z,1004.95
2023-03-30T03:12:10.519Z,1004.92
2023-03-30T03:13:14.691Z,1004.86
2023-03-30T03:14:18.948Z,1004.82
2023-03-30T03:15:23.176Z,1004.74
2023-03-30T03:16:27.481Z,1004.74
2023-03-30T03:17:31.710Z,1004.68
2023-03-30T03:18:35.916Z,1004.68
2023-03-30T03:19:40.169Z,1004.69
2023-03-30T03:20:44.470Z,1004.71
2023-03-30T03:21:48.642Z,1004.73
2023-03-30T03:22:52.880Z,1004.70
2023-03-30T03:23:57.243Z,1004.67
2023-03-30T03:25:01.551Z,1004.66
2023-03-30T03:26:05.753Z,1004.66
2023-03-30T03:27:09.958Z,1004.67
2023-03-30T03:28:14.311Z,1004.65
2023-03-30T03:29:18.520Z,1004.65
2023-03-30T03:30:22.934Z,1004.65
2023-03-30T03:31:27.451Z,1004.62
2023-03-30T03:32:31.462Z,1004.60
2023-03-30T03:33:35.698Z,1004.57
2023-03-30T03:34:40.010Z,1004.57
2023-03-30T03:35:44.250Z,1004.55
2023-03-30T03:36:48.427Z,1004.53
2023-03-30T03:37:52.558Z,1004.53
2023-03-30T03:38:56.846Z,1004.51
2023-03-30T03:40:01.141Z,1004.49
2023-03-30T03:41:05.631Z,1004.47
2023-03-30T03:42:09.673Z,1004.45
2023-03-30T03:43:14.073Z,1004.41
2023-03-30T03:44:18.354Z,1004.42
2023-03-30T03:45:22.648Z,1004.37
2023-03-30T03:46:26.950Z,1004.37
2023-03-30T03:47:31.189Z,1004.36
2023-03-30T03:48:35.433Z,1004.34
2023-03-30T03:49:42.760Z,1004.30
2023-03-30T03:50:46.049Z,1004.28
2023-03-30T03:51:50.276Z,1004.26
2023-03-30T03:52:54.560Z,1004.25
2023-03-30T03:53:58.759Z,1004.25
2023-03-30T03:55:03.014Z,1004.27
2023-03-30T03:56:07.312Z,1004.25
2023-03-30T03:57:11.578Z,1004.24
2023-03-30T03:58:15.785Z,1004.30
2023-03-30T03:59:20.033Z,1004.35
2023-03-30T04:00:24.329Z,1004.35
2023-03-30T04:01:28.510Z,1004.34
2023-03-30T04:02:32.897Z,1004.32
2023-03-30T04:03:37.035Z,1004.30
2023-03-30T04:04:41.428Z,1004.29
2023-03-30T04:05:45.536Z,1004.24
2023-03-30T04:06:49.777Z,1004.25
2023-03-30T04:07:53.896Z,1004.24
2023-03-30T04:08:58.119Z,1004.25
2023-03-30T04:10:02.434Z,1004.22
2023-03-30T04:11:06.693Z,1004.19
2023-03-30T04:12:10.932Z,1004.11
2023-03-30T04:13:15.164Z,1004.05
2023-03-30T04:14:19.310Z,1004.01
2023-03-30T04:15:26.698Z,1003.97
2023-03-30T04:16:30.039Z,1003.97
2023-03-30T04:17:34.311Z,1003.93
2023-03-30T04:18:38.593Z,1003.90
2023-03-30T04:19:42.883Z,1003.87
2023-03-30T04:20:47.148Z,1003.85
2023-03-30T04:21:51.369Z,1003.84
2023-03-30T04:22:55.686Z,1003.83
2023-03-30T04:23:59.943Z,1003.86
2023-03-30T04:25:04.174Z,1003.87
2023-03-30T04:26:08.424Z,1003.89
2023-03-30T04:27:15.772Z,1003.88
2023-03-30T04:28:19.035Z,1003.86
2023-03-30T04:29:23.250Z,1003.87
2023-03-30T04:30:27.577Z,1003.90
2023-03-30T04:31:31.832Z,1003.89
2023-03-30T04:32:36.100Z,1003.95
2023-03-30T04:33:40.423Z,1003.96
2023-03-30T04:34:44.619Z,1003.93
2023-03-30T04:35:48.981Z,1003.92
2023-03-30T04:36:53.175Z,1003.91
2023-03-30T04:37:57.398Z,1003.91
2023-03-30T04:39:01.626Z,1003.86
2023-03-30T04:40:05.845Z,1003.80
2023-03-30T04:41:10.076Z,1003.72
2023-03-30T04:42:14.395Z,1003.64
2023-03-30T04:43:18.658Z,1003.62
2023-03-30T04:44:22.951Z,1003.58
2023-03-30T04:45:27.205Z,1003.55
2023-03-30T04:46:31.368Z,1003.49
2023-03-30T04:47:35.794Z,1003.46
2023-03-30T04:48:39.876Z,1003.46
2023-03-30T04:49:44.147Z,1003.46
2023-03-30T04:50:48.346Z,1003.45
2023-03-30T04:51:52.574Z,1003.40
2023-03-30T04:52:56.759Z,1003.38
2023-03-30T04:54:01.017Z,1003.34
2023-03-30T04:55:05.300Z,1003.33
2023-03-30T04:56:09.641Z,1003.29
2023-03-30T04:57:13.851Z,1003.26
2023-03-30T04:58:18.091Z,1003.28
2023-03-30T04:59:22.319Z,1003.28
2023-03-30T05:00:26.535Z,1003.24
2023-03-30T05:01:30.834Z,1003.17
2023-03-30T05:02:35.085Z,1003.18
2023-03-30T05:03:39.343Z,1003.21
2023-03-30T05:04:43.435Z,1003.23
2023-03-30T05:05:47.659Z,1003.27
2023-03-30T05:06:51.922Z,1003.26
2023-03-30T05:07:56.245Z,1003.27
2023-03-30T05:09:00.384Z,1003.28
2023-03-30T05:10:04.625Z,1003.28
2023-03-30T05:11:08.840Z,1003.29
2023-03-30T05:12:13.083Z,1003.30
2023-03-30T05:13:17.299Z,1003.27
2023-03-30T05:14:21.548Z,1003.27
2023-03-30T05:15:25.798Z,1003.21
2023-03-30T05:16:30.095Z,1003.15
2023-03-30T05:17:34.407Z,1003.12
2023-03-30T05:18:38.540Z,1003.12
2023-03-30T05:19:42.774Z,1003.08
2023-03-30T05:20:47.032Z,1003.09
2023-03-30T05:21:51.216Z,1003.07
2023-03-30T05:22:55.537Z,1003.05
2023-03-30T05:23:59.611Z,1003.03
2023-03-30T05:25:04.020Z,1003.00
2023-03-30T05:26:08.278Z,1003.01
2023-03-30T05:27:12.461Z,1003.00
2023-03-30T05:28:16.700Z,1003.00
2023-03-30T05:29:21.040Z,1002.98
2023-03-30T05:30:25.262Z,1002.92
2023-03-30T05:31:29.525Z,1002.93
2023-03-30T05:32:33.993Z,1002.89
2023-03-30T05:33:37.978Z,1002.89
2023-03-30T05:34:42.217Z,1002.88
2023-03-30T05:35:46.566Z,1002.85
2023-03-30T05:36:50.690Z,1002.80
2023-03-30T05:37:55.063Z,1002.75
2023-03-30T05:38:59.254Z,1002.74
2023-03-30T05:40:03.489Z,1002.75
2023-03-30T05:41:07.677Z,1002.82
2023-03-30T05:42:11.990Z,1002.82
2023-03-30T05:43:16.274Z,1002.79
2023-03-30T05:44:22.458Z,1002.69
2023-03-30T05:45:24.755Z,1002.70
2023-03-30T05:46:32.148Z,1002.70
2023-03-30T05:47:35.270Z,1002.76
2023-03-30T05:48:39.528Z,1002.73
2023-03-30T05:49:43.911Z,1002.72
2023-03-30T05:50:48.074Z,1002.70
2023-03-30T05:51:52.334Z,1002.71
2023-03-30T05:52:56.650Z,1002.68
2023-03-30T05:54:00.805Z,1002.68
2023-03-30T05:55:05.020Z,1002.62
2023-03-30T05:56:09.264Z,1002.65
2023-03-30T05:57:13.549Z,1002.60
2023-03-30T05:58:17.782Z,1002.51
2023-03-30T05:59:21.998Z,1002.49
2023-03-30T06:00:26.298Z,1002.48
2023-03-30T06:01:30.645Z,1002.46
2023-03-30T06:02:34.992Z,1002.43
2023-03-30T06:03:39.404Z,1002.47
2023-03-30T06:06:10.449Z,1002.45
2023-03-30T06:07:14.580Z,1002.40
2023-03-30T06:08:20.089Z,1002.35
2023-03-30T06:09:23.060Z,1002.34
2023-03-30T06:10:27.452Z,1002.32
2023-03-30T06:11:31.736Z,1002.32
2023-03-30T06:12:35.942Z,1002.30
2023-03-30T06:13:40.138Z,1002.29
2023-03-30T06:14:44.336Z,1002.30
2023-03-30T06:15:48.585Z,1002.28
2023-03-30T06:16:52.938Z,1002.35
2023-03-30T06:17:57.595Z,1002.37
2023-03-30T06:19:01.343Z,1002.33
2023-03-30T06:20:05.665Z,1002.34
2023-03-30T06:21:09.958Z,1002.29
2023-03-30T06:22:14.151Z,1002.34
2023-03-30T06:23:18.390Z,1002.30
2023-03-30T06:24:22.636Z,1002.25
2023-03-30T06:25:26.893Z,1002.23
2023-03-30T06:26:31.127Z,1002.26
2023-03-30T06:27:35.382Z,1002.22
2023-03-30T06:28:39.630Z,1002.21
2023-03-30T06:29:43.897Z,1002.23
2023-03-30T06:30:48.126Z,1002.17
2023-03-30T06:31:52.437Z,1002.17
2023-03-30T06:32:56.777Z,1002.13
2023-03-30T06:34:00.948Z,1002.11
2023-03-30T06:35:05.201Z,1002.05
2023-03-30T06:36:09.602Z,1002.03
2023-03-30T06:37:13.823Z,1002.02
2023-03-30T06:38:18.103Z,1002.00
2023-03-30T06:39:36.392Z,1001.99
2023-03-30T06:40:39.534Z,1001.95
2023-03-30T06:41:43.792Z,1001.91
2023-03-30T06:42:47.874Z,1001.89
2023-03-30T06:43:52.157Z,1001.86
2023-03-30T06:44:56.421Z,1001.82
2023-03-30T06:46:00.676Z,1001.83
2023-03-30T06:47:04.832Z,1001.84
2023-03-30T06:48:09.206Z,1001.83
2023-03-30T06:49:13.436Z,1001.80
2023-03-30T06:50:17.643Z,1001.74
2023-03-30T06:51:21.909Z,1001.71
2023-03-30T06:52:26.238Z,1001.68
2023-03-30T06:53:30.569Z,1001.65
2023-03-30T06:54:34.776Z,1001.65
2023-03-30T06:55:39.103Z,1001.69
2023-03-30T06:56:43.359Z,1001.71
2023-03-30T06:57:47.562Z,1001.76
2023-03-30T06:58:51.853Z,1001.85
2023-03-30T06:59:56.133Z,1001.89
2023-03-30T07:01:00.464Z,1001.93
2023-03-30T07:02:04.642Z,1001.90
2023-03-30T07:03:09.011Z,1001.88
2023-03-30T07:04:13.215Z,1001.89
2023-03-30T07:05:17.415Z,1001.88
2023-03-30T07:06:21.745Z,1001.92
2023-03-30T07:07:25.976Z,1001.94
2023-03-30T07:08:30.244Z,1001.91
2023-03-30T07:09:34.491Z,1001.92
2023-03-30T07:10:38.842Z,1001.95
2023-03-30T07:11:43.046Z,1001.90
2023-03-30T07:12:47.269Z,1001.85
2023-03-30T07:13:51.540Z,1001.81
2023-03-30T07:14:55.892Z,1001.76
2023-03-30T07:16:00.038Z,1001.72
2023-03-30T07:17:07.662Z,1001.68
2023-03-30T07:18:10.688Z,1001.64
2023-03-30T07:19:14.870Z,1001.63
2023-03-30T07:20:19.106Z,1001.63
2023-03-30T07:21:23.473Z,1001.66
2023-03-30T07:22:27.645Z,1001.69
2023-03-30T07:23:31.879Z,1001.72
2023-03-30T07:24:36.103Z,1001.76
2023-03-30T07:25:40.329Z,1001.75
2023-03-30T07:26:44.736Z,1001.75
2023-03-30T07:27:48.811Z,1001.72
2023-03-30T07:28:53.063Z,1001.71
2023-03-30T07:30:04.541Z,1001.73
2023-03-30T07:31:01.713Z,1001.76
2023-03-30T07:32:05.954Z,1001.79
2023-03-30T07:33:10.378Z,1001.81
2023-03-30T07:34:14.481Z,1001.78
2023-03-30T07:35:18.754Z,1001.72
2023-03-30T07:36:23.003Z,1001.69
2023-03-30T07:37:27.209Z,1001.66
2023-03-30T07:38:31.594Z,1001.63
2023-03-30T07:39:35.873Z,1001.56
2023-03-30T07:40:40.102Z,1001.52
2023-03-30T07:41:44.370Z,1001.52
2023-03-30T07:42:48.664Z,1001.49
2023-03-30T07:43:52.907Z,1001.52
2023-03-30T07:44:57.140Z,1001.58
2023-03-30T07:46:01.421Z,1001.62
2023-03-30T07:47:05.639Z,1001.63
2023-03-30T07:48:09.947Z,1001.62
2023-03-30T07:49:14.190Z,1001.57
2023-03-30T07:50:18.535Z,1001.55
2023-03-30T07:51:22.720Z,1001.50
2023-03-30T07:52:27.008Z,1001.47
2023-03-30T07:53:31.272Z,1001.43
2023-03-30T07:54:35.519Z,1001.38
2023-03-30T07:55:39.760Z,1001.37
2023-03-30T07:56:44.082Z,1001.37
2023-03-30T07:57:48.296Z,1001.39
2023-03-30T07:58:52.545Z,1001.36
2023-03-30T07:59:56.814Z,1001.35
2023-03-30T08:01:01.088Z,1001.33
2023-03-30T08:02:05.536Z,1001.31
2023-03-30T08:03:09.820Z,1001.34
2023-03-30T08:04:14.037Z,1001.34
2023-03-30T08:05:18.266Z,1001.35
2023-03-30T08:06:22.446Z,1001.34
2023-03-30T08:07:26.831Z,1001.31
2023-03-30T08:08:31.084Z,1001.26
2023-03-30T08:09:35.334Z,1001.25
2023-03-30T08:10:39.584Z,1001.27
2023-03-30T08:11:43.795Z,1001.29
2023-03-30T08:12:48.057Z,1001.30
2023-03-30T08:13:52.292Z,1001.27
2023-03-30T08:14:56.864Z,1001.27
2023-03-30T08:16:00.983Z,1001.29
2023-03-30T08:17:05.261Z,1001.28
2023-03-30T08:18:09.561Z,1001.31
2023-03-30T08:19:13.804Z,1001.28
2023-03-30T08:20:18.034Z,1001.26
2023-03-30T08:21:22.311Z,1001.25
2023-03-30T08:22:40.562Z,1001.21
2023-03-30T08:23:43.807Z,1001.17
2023-03-30T08:24:47.946Z,1001.19
2023-03-30T08:25:52.275Z,1001.15
2023-03-30T08:26:56.478Z,1001.14
2023-03-30T08:28:00.836Z,1001.09
2023-03-30T08:29:05.057Z,1001.11
2023-03-30T08:30:09.358Z,1001.11
2023-03-30T08:31:13.579Z,1001.13
2023-03-30T08:32:17.846Z,1001.09
2023-03-30T08:33:22.113Z,1001.10
2023-03-30T08:34:26.370Z,1001.10
2023-03-30T08:35:30.691Z,1001.12
2023-03-30T08:36:34.909Z,1001.09
2023-03-30T08:37:39.171Z,1001.09
2023-03-30T08:38:43.389Z,1001.11
2023-03-30T08:39:47.750Z,1001.12
2023-03-30T08:40:52.102Z,1001.12
2023-03-30T08:41:56.299Z,1001.09
2023-03-30T08:43:00.545Z,1001.06
2023-03-30T08:44:04.893Z,1001.07
2023-03-30T08:45:09.073Z,1001.08
2023-03-30T08:46:13.532Z,1001.07
2023-03-30T08:47:17.625Z,1001.02
2023-03-30T08:48:21.917Z,1001.02
2023-03-30T08:49:26.179Z,1001.04
2023-03-30T08:50:30.487Z,1001.04
2023-03-30T08:51:34.594Z,1001.04
2023-03-30T08:52:38.951Z,1001.09
2023-03-30T08:53:43.216Z,1001.08
2023-03-30T08:54:47.455Z,1001.12
2023-03-30T08:55:51.718Z,1001.15
2023-03-30T08:56:56.014Z,1001.19
2023-03-30T08:58:00.240Z,1001.20
2023-03-30T08:59:18.688Z,1001.15
2023-03-30T09:00:21.795Z,1001.11
2023-03-30T09:01:26.262Z,1001.08
2023-03-30T09:02:30.470Z,1001.04
2023-03-30T09:03:34.577Z,1001.07
2023-03-30T09:04:38.880Z,1001.05
2023-03-30T09:05:43.205Z,1001.04
2023-03-30T09:06:47.444Z,1001.01
2023-03-30T09:07:51.827Z,1001.01
2023-03-30T09:08:56.001Z,1000.97
2023-03-30T09:10:00.313Z,1000.95
2023-03-30T09:11:04.829Z,1000.94
2023-03-30T09:12:08.927Z,1000.93
2023-03-30T09:13:13.165Z,1000.88
2023-03-30T09:14:17.551Z,1000.89
2023-03-30T09:15:21.851Z,1000.92
2023-03-30T09:16:26.220Z,1000.95
2023-03-30T09:17:30.530Z,1000.92
2023-03-30T09:18:34.850Z,1000.94
2023-03-30T09:19:39.134Z,1000.96
2023-03-30T09:20:45.898Z,1000.89
2023-03-30T09:21:47.791Z,1000.88
2023-03-30T09:22:52.113Z,1000.85
2023-03-30T09:23:56.455Z,1000.83
2023-03-30T09:25:00.698Z,1000.86
2023-03-30T09:26:05.006Z,1000.84
2023-03-30T09:27:09.294Z,1000.82
2023-03-30T09:28:13.639Z,1000.79
2023-03-30T09:29:17.912Z,1000.77
2023-03-30T09:30:22.176Z,1000.74
2023-03-30T09:31:26.594Z,1000.74
2023-03-30T09:32:30.955Z,1000.73
2023-03-30T09:33:35.135Z,1000.72
2023-03-30T09:34:39.431Z,1000.73
2023-03-30T09:35:43.767Z,1000.71
2023-03-30T09:36:47.993Z,1000.75
2023-03-30T09:37:52.373Z,1000.71
2023-03-30T09:38:56.658Z,1000.68
2023-03-30T09:40:01.038Z,1000.64
2023-03-30T09:41:05.354Z,1000.61
2023-03-30T09:42:23.561Z,1000.59
2023-03-30T09:43:26.604Z,1000.58
2023-03-30T09:44:30.839Z,1000.58
2023-03-30T09:45:35.126Z,1000.57
2023-03-30T09:46:39.522Z,1000.55
2023-03-30T09:47:43.873Z,1000.54
2023-03-30T09:48:48.182Z,1000.55
2023-03-30T09:49:52.532Z,1000.61
2023-03-30T09:50:56.860Z,1000.58
2023-03-30T09:52:01.112Z,1000.58
2023-03-30T09:53:05.358Z,1000.56
2023-03-30T09:54:09.687Z,1000.58
2023-03-30T09:55:14.029Z,1000.56
2023-03-30T09:56:18.303Z,1000.56
2023-03-30T09:57:22.776Z,1000.57
2023-03-30T09:58:26.920Z,1000.60
2023-03-30T09:59:31.244Z,1000.63
2023-03-30T10:00:35.492Z,1000.67
2023-03-30T10:01:39.778Z,1000.66
2023-03-30T10:02:44.152Z,1000.69
2023-03-30T10:03:48.544Z,1000.67
2023-03-30T10:04:52.907Z,1000.63
2023-03-30T10:05:56.943Z,1000.63
2023-03-30T10:07:12.839Z,1000.61
2023-03-30T10:08:05.552Z,1000.63
2023-03-30T10:09:09.877Z,1000.62
2023-03-30T10:10:14.208Z,1000.61
2023-03-30T10:11:18.563Z,1000.61
2023-03-30T10:12:22.757Z,1000.62
2023-03-30T10:13:41.161Z,1000.59
2023-03-30T10:14:44.216Z,1000.57
2023-03-30T10:15:48.529Z,1000.55
2023-03-30T10:16:52.705Z,1000.54
2023-03-30T10:17:56.932Z,1000.53
2023-03-30T10:19:01.327Z,1000.53
2023-03-30T10:20:13.696Z,1000.58
2023-03-30T10:21:09.874Z,1000.57
2023-03-30T10:22:14.308Z,1000.53
2023-03-30T10:23:18.557Z,1000.57
2023-03-30T10:24:22.942Z,1000.54
2023-03-30T10:25:27.268Z,1000.50
2023-03-30T10:26:31.463Z,1000.48
2023-03-30T10:27:35.672Z,1000.49
2023-03-30T10:28:40.067Z,1000.47
2023-03-30T10:29:44.313Z,1000.48
2023-03-30T10:30:48.594Z,1000.47
2023-03-30T10:31:53.085Z,1000.42
2023-03-30T10:32:57.316Z,1000.39
2023-03-30T10:34:15.459Z,1000.42
2023-03-30T10:35:18.653Z,1000.42
2023-03-30T10:36:22.867Z,1000.45
2023-03-30T10:37:27.046Z,1000.45
2023-03-30T10:38:31.490Z,1000.44
2023-03-30T10:39:35.766Z,1000.41
2023-03-30T10:40:40.170Z,1000.40
2023-03-30T10:41:44.433Z,1000.40
2023-03-30T10:42:48.729Z,1000.41
2023-03-30T10:43:53.131Z,1000.47
2023-03-30T10:44:57.519Z,1000.49
2023-03-30T10:46:12.760Z,1000.47
2023-03-30T10:47:06.117Z,1000.44
2023-03-30T10:48:10.469Z,1000.42
2023-03-30T10:49:14.613Z,1000.38
2023-03-30T10:50:19.168Z,1000.38
2023-03-30T10:51:23.302Z,1000.39
2023-03-30T10:52:27.658Z,1000.36
2023-03-30T10:53:31.984Z,1000.36
2023-03-30T10:54:36.376Z,1000.33
2023-03-30T10:55:40.662Z,1000.32
2023-03-30T10:56:45.049Z,1000.33
2023-03-30T10:57:49.302Z,1000.33
2023-03-30T10:58:53.495Z,1000.28
2023-03-30T10:59:59.983Z,1000.31
2023-03-30T11:01:02.287Z,1000.25
2023-03-30T11:02:06.608Z,1000.31
2023-03-30T11:03:11.169Z,1000.30
2023-03-30T11:04:23.277Z,1000.33
2023-03-30T11:05:19.562Z,1000.32
2023-03-30T11:06:23.882Z,1000.33
2023-03-30T11:07:28.156Z,1000.31
2023-03-30T11:08:32.617Z,1000.27
2023-03-30T11:09:36.878Z,1000.25
2023-03-30T11:10:43.952Z,1000.21
2023-03-30T11:11:45.538Z,1000.19
2023-03-30T11:12:49.829Z,1000.18
2023-03-30T11:13:54.208Z,1000.10
2023-03-30T11:14:58.500Z,1000.07
2023-03-30T11:16:03.064Z,1000.09
2023-03-30T11:17:07.218Z,1000.09
2023-03-30T11:18:11.597Z,1000.10
2023-03-30T11:19:15.908Z,1000.14
2023-03-30T11:20:20.127Z,1000.12
2023-03-30T11:21:24.529Z,1000.09
2023-03-30T11:22:30.260Z,1000.09
2023-03-30T11:23:33.076Z,1000.05
2023-03-30T11:24:37.485Z,1000.04
2023-03-30T11:25:41.856Z,1000.01
2023-03-30T11:26:46.255Z,1000.03
2023-03-30T11:27:50.638Z,1000.07
2023-03-30T11:28:54.986Z,1000.07
2023-03-30T11:29:59.306Z,1000.05
2023-03-30T11:31:03.588Z,1000.08
2023-03-30T11:32:08.022Z,1000.08
2023-03-30T11:33:12.360Z,1000.12
2023-03-30T11:34:16.600Z,1000.08
2023-03-30T11:35:21.045Z,1000.04
2023-03-30T11:36:25.383Z,1000.07
2023-03-30T11:37:32.632Z,1000.06
2023-03-30T11:38:35.996Z,1000.03
2023-03-30T11:39:40.404Z,1000.03
2023-03-30T11:40:44.663Z,1000.02
2023-03-30T11:41:49.073Z,1000.01
2023-03-30T11:42:53.434Z,1000.02
2023-03-30T11:43:57.645Z,1000.03
2023-03-30T11:45:01.999Z,1000.01
2023-03-30T11:46:06.687Z,1000.02
2023-03-30T11:47:10.667Z,999.98
2023-03-30T11:48:15.076Z,999.93
2023-03-30T11:49:19.473Z,999.93
2023-03-30T11:50:23.843Z,999.91
2023-03-30T11:51:28.100Z,999.89
2023-03-30T11:52:32.536Z,999.86
2023-03-30T11:53:36.906Z,999.82
2023-03-30T11:54:49.627Z,999.84
2023-03-30T11:55:45.675Z,999.84
2023-03-30T11:56:49.966Z,999.85
2023-03-30T11:57:54.347Z,999.85
2023-03-30T11:58:58.608Z,999.83
2023-03-30T12:00:02.968Z,999.82
2023-03-30T12:01:07.603Z,999.78
2023-03-30T12:03:39.080Z,999.80
2023-03-30T12:05:47.546Z,999.79
2023-03-30T12:06:51.910Z,999.78
2023-03-30T12:07:56.353Z,999.79
2023-03-30T12:09:00.683Z,999.82
2023-03-30T12:10:08.480Z,999.80
2023-03-30T12:11:11.450Z,999.81
2023-03-30T12:12:15.925Z,999.80
2023-03-30T12:13:20.227Z,999.71
2023-03-30T12:14:24.594Z,999.73
2023-03-30T12:15:29.034Z,999.73
2023-03-30T12:16:33.445Z,999.72
2023-03-30T12:17:37.776Z,999.72
2023-03-30T12:18:42.042Z,999.72
2023-03-30T12:19:56.001Z,999.73
2023-03-30T12:20:50.766Z,999.74
2023-03-30T12:21:55.010Z,999.75
2023-03-30T12:22:59.320Z,999.80
2023-03-30T12:24:03.640Z,999.87
2023-03-30T12:25:22.019Z,999.92
2023-03-30T12:26:25.162Z,1000.03
2023-03-30T12:27:29.395Z,1000.08
2023-03-30T12:28:52.267Z,1000.07
2023-03-30T12:30:00.850Z,1000.11
2023-03-30T12:30:42.305Z,1000.12
2023-03-30T12:31:46.785Z,1000.11
2023-03-30T12:32:50.990Z,1000.13
2023-03-30T12:33:55.354Z,1000.10
2023-03-30T12:34:59.715Z,1000.13
2023-03-30T12:36:04.277Z,1000.15
2023-03-30T12:37:08.263Z,1000.16
2023-03-30T12:38:12.706Z,1000.20
2023-03-30T12:39:17.100Z,1000.13
2023-03-30T12:40:21.479Z,999.98
2023-03-30T12:41:25.812Z,999.95
2023-03-30T12:42:30.077Z,999.91
2023-03-30T12:43:34.520Z,999.95
2023-03-30T12:44:38.727Z,999.91
2023-03-30T12:45:43.110Z,999.84
2023-03-30T12:46:47.361Z,999.79
2023-03-30T12:47:51.743Z,999.77
2023-03-30T12:48:56.038Z,999.71
2023-03-30T12:50:00.208Z,999.66
2023-03-30T12:51:04.816Z,999.63
2023-03-30T12:52:08.929Z,999.57
2023-03-30T12:53:13.190Z,999.52
2023-03-30T12:54:17.528Z,999.54
2023-03-30T12:55:21.869Z,999.52
2023-03-30T12:56:26.205Z,999.51
2023-03-30T12:57:30.640Z,999.51
2023-03-30T12:58:37.064Z,999.49
2023-03-30T12:59:39.260Z,999.46
2023-03-30T13:00:43.640Z,999.42
2023-03-30T13:01:47.972Z,999.41
2023-03-30T13:02:52.339Z,999.40
2023-03-30T13:03:56.739Z,999.38
2023-03-30T13:05:07.164Z,999.35
2023-03-30T13:06:10.213Z,999.35